Time;durP1;ratioP1;P1;durP2;ratioP2;P2;SDS_P1;SDS_P2;PMS_P1;PMS_P2;Temp;Humidity;BMP_temperature;BMP_pressure;BME280_temperature;BME280_humidity;BME280_pressure;Samples;Min_cycle;Max_cycle;Signal;HPM_P1;HPM_P2
2024/01/19 00:00:39;;;;;;;19.70;10.82;;;2.00;99.90;;;;;;4249547;27;20095;-57
2024/01/19 00:02:43;;;;;;;20.77;11.15;;;2.30;99.90;;;;;;4248439;27;20475;-57
2024/01/19 00:04:47;;;;;;;20.95;10.90;;;2.40;99.90;;;;;;4249391;27;20087;-57
2024/01/19 00:06:51;;;;;;;16.58;10.15;;;2.40;99.80;;;;;;4249380;27;20054;-56
2024/01/19 00:08:53;;;;;;;19.02;10.38;;;2.40;99.50;;;;;;4249010;27;20039;-58
2024/01/19 00:10:55;;;;;;;18.92;10.90;;;2.40;99.20;;;;;;4249382;27;20093;-57
2024/01/19 00:12:57;;;;;;;18.02;9.85;;;2.30;99.60;;;;;;4249120;27;20410;-58
2024/01/19 00:15:00;;;;;;;18.33;10.15;;;2.20;99.20;;;;;;4249080;27;20081;-57
2024/01/19 00:17:04;;;;;;;12.27;7.78;;;2.10;99.40;;;;;;4249170;27;20482;-56
2024/01/19 00:19:07;;;;;;;20.08;10.50;;;2.00;99.20;;;;;;4249312;27;20497;-57
2024/01/19 00:21:09;;;;;;;14.02;9.13;;;2.00;99.20;;;;;;4249534;27;20478;-58
2024/01/19 00:23:12;;;;;;;17.92;9.95;;;2.00;99.70;;;;;;4248717;27;20043;-56
2024/01/19 00:25:14;;;;;;;17.30;9.80;;;2.10;99.90;;;;;;4249048;27;20149;-57
2024/01/19 00:27:16;;;;;;;19.73;9.75;;;2.20;99.90;;;;;;4248715;27;20039;-57
2024/01/19 00:29:18;;;;;;;15.77;9.60;;;2.20;99.50;;;;;;4230844;28;20056;-57
2024/01/19 00:31:21;;;;;;;15.60;9.05;;;2.20;99.40;;;;;;4248936;27;20047;-56
2024/01/19 00:33:23;;;;;;;16.92;9.60;;;2.20;99.50;;;;;;4248967;27;20039;-64
2024/01/19 00:35:26;;;;;;;18.75;9.25;;;2.20;99.50;;;;;;4248903;27;20064;-56
2024/01/19 00:37:28;;;;;;;16.73;8.75;;;2.10;99.60;;;;;;4250018;27;20055;-58
2024/01/19 00:39:32;;;;;;;17.35;9.68;;;2.10;99.90;;;;;;4231870;28;20127;-57
2024/01/19 00:41:34;;;;;;;15.55;9.55;;;2.10;99.00;;;;;;4248113;27;20545;-57
2024/01/19 00:43:36;;;;;;;14.95;9.32;;;2.00;99.00;;;;;;4248766;27;20108;-56
2024/01/19 00:45:38;;;;;;;14.98;8.52;;;1.90;99.20;;;;;;4248662;27;20051;-56
2024/01/19 00:47:40;;;;;;;16.50;9.02;;;2.10;99.90;;;;;;4248748;27;20192;-57
2024/01/19 00:49:42;;;;;;;19.70;9.27;;;2.20;99.60;;;;;;4248865;27;20047;-57
2024/01/19 00:51:46;;;;;;;14.88;8.20;;;2.30;99.30;;;;;;4248123;27;20055;-56
2024/01/19 00:53:48;;;;;;;16.30;9.15;;;2.20;99.30;;;;;;4248456;27;20063;-57
2024/01/19 00:55:50;;;;;;;17.30;9.35;;;2.20;99.40;;;;;;4248262;27;20043;-57
2024/01/19 00:57:52;;;;;;;19.02;9.75;;;2.20;99.40;;;;;;4248628;27;20046;-57
2024/01/19 00:59:55;;;;;;;16.38;9.60;;;2.20;99.90;;;;;;4248461;27;20051;-57
2024/01/19 01:01:57;;;;;;;14.13;9.75;;;2.20;99.20;;;;;;4248395;27;20039;-58
2024/01/19 01:04:01;;;;;;;17.58;10.80;;;2.10;99.20;;;;;;4250850;27;20047;-60
2024/01/19 01:06:04;;;;;;;17.02;10.48;;;1.90;99.40;;;;;;4249813;27;20047;-57
2024/01/19 01:08:08;;;;;;;18.98;11.27;;;1.80;99.00;;;;;;4250544;27;20532;-57
2024/01/19 01:10:10;;;;;;;18.17;10.48;;;1.70;99.70;;;;;;4248164;27;20047;-57
2024/01/19 01:12:12;;;;;;;19.42;10.00;;;1.80;99.90;;;;;;4230324;28;20075;-57
2024/01/19 01:14:15;;;;;;;19.13;10.65;;;1.90;99.90;;;;;;4248609;27;20099;-57
2024/01/19 01:16:17;;;;;;;20.70;11.25;;;2.00;99.90;;;;;;4249154;27;20146;-57
2024/01/19 01:18:20;;;;;;;17.40;10.80;;;2.00;99.50;;;;;;4232105;28;20048;-58
2024/01/19 01:20:22;;;;;;;22.83;11.35;;;1.90;99.50;;;;;;4250591;27;20509;-57
2024/01/19 01:22:24;;;;;;;21.83;12.40;;;1.80;99.70;;;;;;4232011;28;20050;-57
2024/01/19 01:24:28;;;;;;;21.10;11.45;;;1.80;99.80;;;;;;4248157;27;20073;-57
2024/01/19 01:26:30;;;;;;;17.23;11.70;;;1.80;99.90;;;;;;4230010;28;20518;-57
2024/01/19 01:28:32;;;;;;;23.02;12.45;;;1.80;99.90;;;;;;4229956;28;20478;-61
2024/01/19 01:30:35;;;;;;;21.98;12.43;;;1.80;99.80;;;;;;4248195;27;20047;-58
2024/01/19 01:32:37;;;;;;;18.67;11.52;;;1.70;99.90;;;;;;4247952;27;20093;-56
2024/01/19 01:34:40;;;;;;;22.10;11.63;;;1.80;99.90;;;;;;4247780;27;20047;-57
2024/01/19 01:36:42;;;;;;;20.77;11.27;;;1.80;99.90;;;;;;4248127;27;20492;-57
2024/01/19 01:38:44;;;;;;;22.88;12.55;;;1.90;99.70;;;;;;4229630;28;20054;-57
2024/01/19 01:40:47;;;;;;;21.27;11.70;;;2.00;99.90;;;;;;4248241;27;20391;-57
2024/01/19 01:42:49;;;;;;;22.33;11.73;;;2.00;99.90;;;;;;4247772;27;20043;-57
2024/01/19 01:44:51;;;;;;;20.58;11.25;;;2.00;99.90;;;;;;4247858;27;20051;-57
2024/01/19 01:46:54;;;;;;;20.90;11.73;;;1.90;99.90;;;;;;4247619;28;20039;-57
2024/01/19 01:48:56;;;;;;;25.00;12.43;;;2.00;99.90;;;;;;4247416;28;20403;-57
2024/01/19 01:50:58;;;;;;;19.77;11.32;;;2.00;99.90;;;;;;4247833;28;20047;-57
2024/01/19 01:53:00;;;;;;;17.13;11.32;;;1.90;99.90;;;;;;4248050;28;20076;-57
2024/01/19 01:55:03;;;;;;;19.40;11.73;;;1.70;99.90;;;;;;4247935;28;20141;-57
2024/01/19 01:57:07;;;;;;;19.98;11.40;;;1.60;99.90;;;;;;4248099;28;20054;-57
2024/01/19 01:59:09;;;;;;;19.90;11.80;;;1.60;99.90;;;;;;4248481;28;20130;-60
2024/01/19 02:01:12;;;;;;;17.85;11.30;;;1.70;99.90;;;;;;4248616;28;20421;-59
2024/01/19 02:03:14;;;;;;;19.02;11.63;;;1.70;99.90;;;;;;4249899;28;20140;-57
2024/01/19 02:05:16;;;;;;;18.83;11.77;;;1.80;99.90;;;;;;4249509;28;20070;-57
2024/01/19 02:07:18;;;;;;;22.02;12.15;;;1.70;99.90;;;;;;4248112;28;20049;-57
2024/01/19 02:09:21;;;;;;;23.08;12.95;;;1.80;99.90;;;;;;4247726;28;20039;-57
2024/01/19 02:11:23;;;;;;;19.73;11.48;;;1.80;99.90;;;;;;4247601;28;20074;-57
2024/01/19 02:13:27;;;;;;;20.27;12.48;;;1.80;99.90;;;;;;4229518;28;20116;-57
2024/01/19 02:15:30;;;;;;;21.55;11.73;;;1.70;99.90;;;;;;4247767;28;20470;-57
2024/01/19 02:17:32;;;;;;;19.83;11.32;;;1.60;99.90;;;;;;4247532;28;20043;-57
2024/01/19 02:19:35;;;;;;;19.23;11.65;;;1.70;99.90;;;;;;4247631;28;20043;-57
2024/01/19 02:21:37;;;;;;;19.02;11.93;;;1.70;99.90;;;;;;4247781;28;20039;-57
2024/01/19 02:23:45;;;;;;;19.02;10.10;;;1.80;99.90;;;;;;4247860;28;20043;-57
2024/01/19 02:25:50;;;;;;;20.98;11.73;;;2.00;99.90;;;;;;4248880;27;20050;-61
2024/01/19 02:27:53;;;;;;;19.42;11.60;;;1.90;99.90;;;;;;4250931;27;20126;-56
2024/01/19 02:29:55;;;;;;;22.67;11.23;;;2.00;99.90;;;;;;4251045;27;20046;-57
2024/01/19 02:31:57;;;;;;;24.67;12.25;;;1.90;99.90;;;;;;4250661;27;20047;-58
2024/01/19 02:33:59;;;;;;;20.92;12.55;;;1.80;99.90;;;;;;4250503;27;20043;-56
2024/01/19 02:36:01;;;;;;;25.83;11.60;;;1.80;99.90;;;;;;4250787;27;20139;-57
2024/01/19 02:38:03;;;;;;;23.73;12.95;;;1.80;99.90;;;;;;4251074;27;20074;-57
2024/01/19 02:40:07;;;;;;;22.77;11.27;;;1.70;99.70;;;;;;4250533;27;20059;-55
2024/01/19 02:42:10;;;;;;;21.48;11.65;;;1.70;99.90;;;;;;4250765;27;20508;-57
2024/01/19 02:44:12;;;;;;;19.95;11.82;;;1.70;99.90;;;;;;4250410;27;20054;-57
2024/01/19 02:46:18;;;;;;;18.05;11.60;;;1.80;99.90;;;;;;4250691;27;20455;-57
2024/01/19 02:48:20;;;;;;;17.30;11.32;;;1.90;99.90;;;;;;4250138;27;20074;-56
2024/01/19 02:50:22;;;;;;;17.80;11.60;;;2.00;99.90;;;;;;4251004;27;20100;-56
2024/01/19 02:52:24;;;;;;;17.77;10.82;;;2.00;99.90;;;;;;4252219;27;20047;-57
2024/01/19 02:54:26;;;;;;;19.75;10.55;;;1.90;99.90;;;;;;4234401;28;20447;-58
2024/01/19 02:56:28;;;;;;;19.63;11.85;;;1.90;99.90;;;;;;4250994;27;20049;-57
2024/01/19 02:58:31;;;;;;;16.73;10.35;;;2.00;99.90;;;;;;4250947;27;20426;-58
2024/01/19 03:00:33;;;;;;;18.60;11.23;;;1.90;99.70;;;;;;4251077;27;20047;-57
2024/01/19 03:02:36;;;;;;;20.55;11.07;;;1.70;99.50;;;;;;4250241;27;20055;-57
2024/01/19 03:04:38;;;;;;;17.00;10.57;;;1.60;99.90;;;;;;4250658;27;20039;-57
2024/01/19 03:06:40;;;;;;;19.98;11.02;;;1.60;99.90;;;;;;4250739;27;20047;-58
2024/01/19 03:08:42;;;;;;;15.73;10.18;;;1.70;99.90;;;;;;4250238;27;20039;-56
2024/01/19 03:10:44;;;;;;;23.13;11.60;;;1.70;99.90;;;;;;4250407;27;20040;-59
2024/01/19 03:12:47;;;;;;;17.08;9.95;;;1.70;99.90;;;;;;4232081;28;20052;-56
2024/01/19 03:14:50;;;;;;;17.05;10.98;;;1.80;99.90;;;;;;4250505;27;20054;-57
2024/01/19 03:16:52;;;;;;;18.77;11.32;;;1.90;99.90;;;;;;4249698;27;20047;-56
2024/01/19 03:18:55;;;;;;;16.45;10.45;;;1.80;99.90;;;;;;4250292;27;20049;-56
2024/01/19 03:20:57;;;;;;;16.85;10.23;;;1.80;99.90;;;;;;4250145;27;20486;-57
2024/01/19 03:22:59;;;;;;;16.38;10.63;;;1.80;99.90;;;;;;4250116;27;20047;-56
2024/01/19 03:25:02;;;;;;;19.92;11.30;;;1.60;99.70;;;;;;4249874;27;20043;-57
2024/01/19 03:27:05;;;;;;;19.70;10.40;;;1.50;99.90;;;;;;4250013;27;20036;-57
2024/01/19 03:29:07;;;;;;;18.33;11.20;;;1.50;99.90;;;;;;4250238;27;20047;-56
2024/01/19 03:31:10;;;;;;;21.48;11.82;;;1.60;99.90;;;;;;4231466;28;20039;-57
2024/01/19 03:33:15;;;;;;;20.38;11.90;;;1.70;99.90;;;;;;4250015;27;20043;-57
2024/01/19 03:35:17;;;;;;;20.13;11.65;;;1.70;99.60;;;;;;4250431;27;20108;-57
2024/01/19 03:37:20;;;;;;;21.77;11.10;;;1.80;99.90;;;;;;4249704;27;20502;-57
2024/01/19 03:39:23;;;;;;;18.27;11.32;;;1.80;99.90;;;;;;4251150;27;20040;-57
2024/01/19 03:41:25;;;;;;;17.90;11.02;;;1.70;99.90;;;;;;4233807;28;20051;-57
2024/01/19 03:43:27;;;;;;;14.95;10.65;;;1.70;99.90;;;;;;4232923;28;20043;-59
2024/01/19 03:45:29;;;;;;;20.42;11.88;;;1.70;99.90;;;;;;4250575;27;20043;-57
2024/01/19 03:47:35;;;;;;;20.45;11.48;;;1.60;99.90;;;;;;4250255;27;20095;-57
2024/01/19 03:49:39;;;;;;;23.77;12.18;;;1.50;99.50;;;;;;4249902;27;20039;-57
2024/01/19 03:51:56;;;;;;;19.10;11.15;;;1.50;99.80;;;;;;4249902;27;20047;-57
2024/01/19 03:53:58;;;;;;;19.95;12.30;;;1.50;99.90;;;;;;4250064;27;20048;-57
2024/01/19 03:56:00;;;;;;;18.88;10.68;;;1.50;99.90;;;;;;4249655;27;20039;-57
2024/01/19 03:58:02;;;;;;;18.00;10.70;;;1.60;99.90;;;;;;4250612;27;20129;-58
2024/01/19 04:00:06;;;;;;;19.38;10.80;;;1.60;99.90;;;;;;4253096;27;20050;-61
2024/01/19 04:02:08;;;;;;;22.10;12.43;;;1.60;99.90;;;;;;4253237;27;20043;-67
2024/01/19 04:04:12;;;;;;;19.08;11.35;;;1.40;99.60;;;;;;4251580;27;20047;-57
2024/01/19 04:06:15;;;;;;;18.48;10.50;;;1.40;99.90;;;;;;4250386;27;20375;-57
2024/01/19 04:08:17;;;;;;;16.52;11.05;;;1.50;99.90;;;;;;4250102;27;20039;-56
2024/01/19 04:10:19;;;;;;;19.92;11.65;;;1.50;99.90;;;;;;4249865;27;20042;-59
2024/01/19 04:12:21;;;;;;;17.75;11.85;;;1.30;99.80;;;;;;4252579;27;20059;-57
2024/01/19 04:14:23;;;;;;;15.02;10.43;;;1.40;99.90;;;;;;4252966;27;20099;-58
2024/01/19 04:16:26;;;;;;;18.50;11.50;;;1.40;99.90;;;;;;4234334;28;20048;-61
2024/01/19 04:18:28;;;;;;;19.00;10.65;;;1.50;99.90;;;;;;4252039;27;20043;-59
2024/01/19 04:20:31;;;;;;;21.92;12.82;;;1.60;99.90;;;;;;4232259;28;20070;-61
2024/01/19 04:22:33;;;;;;;23.02;12.55;;;1.60;99.90;;;;;;4250014;27;20043;-55
2024/01/19 04:24:35;;;;;;;19.38;11.85;;;1.50;99.80;;;;;;4233992;28;20047;-64
2024/01/19 04:26:37;;;;;;;16.98;11.40;;;1.40;99.90;;;;;;4252611;27;20126;-56
2024/01/19 04:28:40;;;;;;;18.80;11.55;;;1.30;99.90;;;;;;4251024;27;20054;-57
2024/01/19 04:30:42;;;;;;;20.52;11.98;;;1.40;99.90;;;;;;4249461;27;20054;-58
2024/01/19 04:32:44;;;;;;;23.50;13.48;;;1.40;99.90;;;;;;4249248;27;20043;-56
2024/01/19 04:34:46;;;;;;;22.27;12.57;;;1.30;99.90;;;;;;4249272;27;20089;-56
2024/01/19 04:36:50;;;;;;;19.08;11.55;;;1.10;99.90;;;;;;4248942;27;20125;-57
2024/01/19 04:38:52;;;;;;;20.70;12.43;;;1.20;99.90;;;;;;4248415;27;20127;-57
2024/01/19 04:40:54;;;;;;;23.38;12.00;;;1.30;99.90;;;;;;4248812;27;20134;-57
2024/01/19 04:42:56;;;;;;;22.40;13.45;;;1.30;99.90;;;;;;4248357;27;20074;-56
2024/01/19 04:44:58;;;;;;;23.95;12.98;;;1.30;99.90;;;;;;4248777;27;20053;-57
2024/01/19 04:47:01;;;;;;;21.20;13.07;;;1.30;99.90;;;;;;4248685;27;20100;-57
2024/01/19 04:49:03;;;;;;;20.52;12.00;;;1.20;99.90;;;;;;4248157;27;20043;-56
2024/01/19 04:51:06;;;;;;;19.52;12.35;;;1.40;99.90;;;;;;4248496;27;20043;-56
2024/01/19 04:53:09;;;;;;;22.27;13.25;;;1.30;99.90;;;;;;4248368;27;20039;-56
2024/01/19 04:55:12;;;;;;;23.65;12.93;;;1.40;99.90;;;;;;4248113;27;20183;-57
2024/01/19 04:57:14;;;;;;;19.80;13.35;;;1.30;99.90;;;;;;4248452;27;20430;-58
2024/01/19 04:59:17;;;;;;;21.48;12.07;;;1.30;99.90;;;;;;4248661;27;20397;-57
2024/01/19 05:01:19;;;;;;;22.42;13.38;;;1.30;99.90;;;;;;4248468;27;20451;-56
2024/01/19 05:03:22;;;;;;;21.35;12.25;;;1.30;99.90;;;;;;4248513;27;20508;-57
2024/01/19 05:05:24;;;;;;;21.35;13.05;;;1.50;99.90;;;;;;4248214;27;20122;-56
2024/01/19 05:07:27;;;;;;;24.42;14.73;;;1.40;99.90;;;;;;4248474;27;20383;-57
2024/01/19 05:09:30;;;;;;;22.77;13.48;;;1.40;99.90;;;;;;4248293;27;20409;-56
2024/01/19 05:11:33;;;;;;;25.33;13.23;;;1.30;99.90;;;;;;4248252;27;20382;-56
2024/01/19 05:13:36;;;;;;;30.92;14.55;;;1.20;99.90;;;;;;4247931;27;20051;-57
2024/01/19 05:15:38;;;;;;;28.00;15.20;;;1.30;99.90;;;;;;4248188;27;20073;-56
2024/01/19 05:17:40;;;;;;;26.52;14.98;;;1.10;99.90;;;;;;4248135;27;20077;-56
2024/01/19 05:19:42;;;;;;;28.42;16.27;;;1.00;99.90;;;;;;4248232;27;20447;-56
2024/01/19 05:21:45;;;;;;;30.45;14.63;;;1.00;99.90;;;;;;4230075;28;20434;-56
2024/01/19 05:23:47;;;;;;;25.10;13.73;;;1.00;99.90;;;;;;4247997;27;20055;-56
2024/01/19 05:25:50;;;;;;;26.58;14.43;;;1.10;99.90;;;;;;4247971;27;20066;-57
2024/01/19 05:27:53;;;;;;;22.55;12.90;;;1.30;99.90;;;;;;4247916;27;20051;-57
2024/01/19 05:29:55;;;;;;;23.42;13.60;;;1.30;99.90;;;;;;4248111;27;20436;-57
2024/01/19 05:31:57;;;;;;;23.83;13.13;;;1.20;99.90;;;;;;4248003;27;20122;-57
2024/01/19 05:33:59;;;;;;;23.80;13.32;;;1.30;99.90;;;;;;4248097;27;20043;-57
2024/01/19 05:36:02;;;;;;;20.67;12.48;;;1.20;99.90;;;;;;4248084;27;20053;-56
2024/01/19 05:38:05;;;;;;;21.83;13.27;;;1.20;99.90;;;;;;4247669;27;20039;-56
2024/01/19 05:40:08;;;;;;;26.35;13.55;;;1.20;99.90;;;;;;4247860;27;20085;-57
2024/01/19 05:42:11;;;;;;;26.70;14.68;;;1.10;99.90;;;;;;4247557;27;20062;-57
2024/01/19 05:44:13;;;;;;;23.23;14.18;;;1.10;99.90;;;;;;4247780;27;20047;-56
2024/01/19 05:46:15;;;;;;;24.02;13.27;;;1.00;99.90;;;;;;4248196;27;20047;-57
2024/01/19 05:48:17;;;;;;;21.17;12.68;;;1.10;99.90;;;;;;4229433;28;20051;-57
2024/01/19 05:50:19;;;;;;;23.90;13.05;;;1.20;99.90;;;;;;4247897;28;20047;-57
2024/01/19 05:52:21;;;;;;;26.02;14.02;;;1.20;99.90;;;;;;4248038;28;20461;-57
2024/01/19 05:54:24;;;;;;;23.67;13.90;;;1.10;99.90;;;;;;4250875;28;20043;-63
2024/01/19 05:56:26;;;;;;;21.85;14.30;;;1.10;99.90;;;;;;4249823;28;20047;-57
2024/01/19 05:58:29;;;;;;;19.52;12.55;;;1.00;99.90;;;;;;4248643;28;20043;-57
2024/01/19 06:00:31;;;;;;;28.95;13.88;;;0.90;99.90;;;;;;4248851;27;20047;-57
2024/01/19 06:02:33;;;;;;;21.02;12.32;;;0.90;99.90;;;;;;4251567;27;20077;-57
2024/01/19 06:04:38;;;;;;;21.17;13.32;;;0.90;99.90;;;;;;4251477;27;20482;-56
2024/01/19 06:06:40;;;;;;;22.17;13.98;;;0.90;99.90;;;;;;4251389;27;20047;-57
2024/01/19 06:08:43;;;;;;;25.33;14.40;;;0.90;99.90;;;;;;4251372;27;20047;-57
2024/01/19 06:10:45;;;;;;;23.00;12.48;;;0.90;99.90;;;;;;4251139;27;20047;-56
2024/01/19 06:12:47;;;;;;;22.35;13.68;;;0.90;99.90;;;;;;4250893;27;20055;-57
2024/01/19 06:14:51;;;;;;;26.38;13.48;;;1.10;99.90;;;;;;4251214;27;20105;-55
2024/01/19 06:16:53;;;;;;;24.45;13.35;;;1.10;99.90;;;;;;4250869;27;20043;-57
2024/01/19 06:18:57;;;;;;;23.30;14.20;;;1.10;99.90;;;;;;4251258;27;20070;-56
2024/01/19 06:21:00;;;;;;;20.75;13.05;;;1.10;99.90;;;;;;4251348;27;20043;-57
2024/01/19 06:23:03;;;;;;;21.27;12.77;;;1.20;99.90;;;;;;4252105;27;20051;-58
2024/01/19 06:25:05;;;;;;;22.75;12.48;;;1.20;99.90;;;;;;4252935;27;20131;-56
2024/01/19 06:27:07;;;;;;;25.75;13.73;;;1.10;99.90;;;;;;4251312;27;20058;-57
2024/01/19 06:29:09;;;;;;;22.73;14.40;;;1.10;99.90;;;;;;4250866;27;20043;-57
2024/01/19 06:31:13;;;;;;;31.88;15.30;;;1.00;99.90;;;;;;4250862;27;20559;-55
2024/01/19 06:33:15;;;;;;;19.20;9.98;;;0.90;99.90;;;;;;4250808;27;20430;-56
2024/01/19 06:35:17;;;;;;;20.15;13.13;;;1.00;99.90;;;;;;4251126;27;20054;-57
2024/01/19 06:37:20;;;;;;;20.30;12.85;;;1.10;99.90;;;;;;4251008;27;20047;-57
2024/01/19 06:39:23;;;;;;;20.63;12.70;;;1.10;99.90;;;;;;4250348;27;20039;-56
2024/01/19 06:41:25;;;;;;;21.05;13.50;;;1.20;99.90;;;;;;4251221;27;20475;-56
2024/01/19 06:43:27;;;;;;;22.77;13.45;;;1.10;99.90;;;;;;4251424;27;20039;-59
2024/01/19 06:45:29;;;;;;;20.90;12.93;;;1.10;99.90;;;;;;4250905;27;20417;-57
2024/01/19 06:47:33;;;;;;;21.48;12.93;;;1.10;99.90;;;;;;4250622;27;20409;-56
2024/01/19 06:49:36;;;;;;;22.55;13.75;;;1.10;99.90;;;;;;4250792;27;20162;-57
2024/01/19 06:51:39;;;;;;;28.38;15.57;;;1.20;99.90;;;;;;4250496;27;20090;-57
2024/01/19 06:53:41;;;;;;;20.33;13.00;;;1.00;99.90;;;;;;4250307;27;20107;-56
2024/01/19 06:55:43;;;;;;;23.45;13.93;;;1.00;99.90;;;;;;4250398;27;20047;-57
2024/01/19 06:57:45;;;;;;;23.48;13.73;;;1.00;99.90;;;;;;4250431;27;20072;-57
2024/01/19 06:59:47;;;;;;;21.08;13.25;;;1.00;99.90;;;;;;4250575;27;20047;-57
2024/01/19 07:01:49;;;;;;;19.83;13.05;;;1.00;99.90;;;;;;4250744;27;20515;-57
2024/01/19 07:03:52;;;;;;;28.88;15.13;;;1.00;99.90;;;;;;4250731;27;20122;-56
2024/01/19 07:05:56;;;;;;;22.90;14.88;;;0.90;99.90;;;;;;4250803;27;20126;-57
2024/01/19 07:07:58;;;;;;;23.05;14.65;;;1.00;99.90;;;;;;4251977;27;20047;-59
2024/01/19 07:10:00;;;;;;;29.38;16.80;;;0.90;99.90;;;;;;4235893;28;20039;-56
2024/01/19 07:12:03;;;;;;;27.98;14.70;;;1.00;99.90;;;;;;4253627;27;20055;-64
2024/01/19 07:14:05;;;;;;;26.30;15.52;;;1.00;99.90;;;;;;4253082;27;20092;-57
2024/01/19 07:16:07;;;;;;;20.85;13.25;;;0.80;99.90;;;;;;4250726;27;20059;-57
2024/01/19 07:18:10;;;;;;;20.17;13.43;;;0.90;99.90;;;;;;4250227;27;20177;-56
2024/01/19 07:20:14;;;;;;;21.17;13.55;;;0.90;99.90;;;;;;4250557;27;20047;-56
2024/01/19 07:22:16;;;;;;;22.75;13.05;;;1.10;99.90;;;;;;4249906;27;20043;-56
2024/01/19 07:24:19;;;;;;;24.40;14.55;;;1.10;99.90;;;;;;4250074;27;20441;-57
2024/01/19 07:26:22;;;;;;;22.58;13.00;;;1.20;99.90;;;;;;4250120;27;20043;-57
2024/01/19 07:28:24;;;;;;;23.98;14.27;;;1.30;99.90;;;;;;4249203;27;20047;-57
2024/01/19 07:30:26;;;;;;;23.48;14.40;;;1.20;99.90;;;;;;4250110;27;20478;-57
2024/01/19 07:32:28;;;;;;;23.67;13.35;;;1.10;99.90;;;;;;4249797;27;20051;-56
2024/01/19 07:34:30;;;;;;;28.27;13.93;;;1.20;99.90;;;;;;4249767;27;20047;-57
2024/01/19 07:36:34;;;;;;;23.80;13.57;;;1.20;99.90;;;;;;4250055;27;20147;-61
2024/01/19 07:38:36;;;;;;;20.52;12.50;;;1.20;99.90;;;;;;4249641;27;20047;-60
2024/01/19 07:40:38;;;;;;;25.63;15.60;;;1.20;99.90;;;;;;4250075;27;20096;-56
2024/01/19 07:42:41;;;;;;;20.02;13.30;;;1.10;99.90;;;;;;4250538;27;20402;-59
2024/01/19 07:44:43;;;;;;;25.20;14.32;;;1.00;99.90;;;;;;4252906;27;20107;-60
2024/01/19 07:46:45;;;;;;;19.60;11.70;;;1.10;99.90;;;;;;4252802;27;20051;-63
2024/01/19 07:48:47;;;;;;;22.48;14.32;;;1.20;99.90;;;;;;4252231;27;20051;-57
2024/01/19 07:50:49;;;;;;;21.45;12.40;;;1.20;99.90;;;;;;4250657;27;20126;-57
2024/01/19 07:52:53;;;;;;;23.70;13.32;;;1.20;99.90;;;;;;4250319;27;20047;-57
2024/01/19 07:54:55;;;;;;;23.08;14.18;;;1.30;99.90;;;;;;4249778;27;20077;-57
2024/01/19 07:56:58;;;;;;;26.88;14.18;;;1.20;99.90;;;;;;4249437;27;20043;-57
2024/01/19 07:59:02;;;;;;;22.55;14.27;;;1.20;99.90;;;;;;4249967;27;20055;-56
2024/01/19 08:01:04;;;;;;;22.88;13.48;;;1.30;99.90;;;;;;4249666;27;20051;-57
2024/01/19 08:03:06;;;;;;;24.17;14.30;;;1.10;99.90;;;;;;4249357;27;20088;-57
2024/01/19 08:05:09;;;;;;;26.77;14.50;;;1.00;99.90;;;;;;4249871;27;20044;-63
2024/01/19 08:07:11;;;;;;;25.48;14.93;;;1.00;99.90;;;;;;4230879;28;20046;-57
2024/01/19 08:09:14;;;;;;;22.40;14.52;;;1.00;99.90;;;;;;4249576;27;20066;-57
2024/01/19 08:11:16;;;;;;;25.45;15.10;;;1.10;99.90;;;;;;4249340;27;20051;-57
2024/01/19 08:13:18;;;;;;;24.42;15.13;;;1.20;99.90;;;;;;4249500;27;20047;-61
2024/01/19 08:15:20;;;;;;;24.13;14.00;;;1.20;99.90;;;;;;4249438;27;20061;-57
2024/01/19 08:17:22;;;;;;;23.23;14.10;;;1.20;99.90;;;;;;4231240;28;20526;-57
2024/01/19 08:19:25;;;;;;;24.95;14.05;;;1.30;99.90;;;;;;4249656;27;20367;-57
2024/01/19 08:21:27;;;;;;;25.75;16.42;;;1.30;99.90;;;;;;4251539;27;20379;-64
2024/01/19 08:23:29;;;;;;;21.67;14.63;;;1.20;99.90;;;;;;4250298;27;20043;-57
2024/01/19 08:25:32;;;;;;;22.95;14.70;;;1.00;99.90;;;;;;4251557;27;20047;-57
2024/01/19 08:27:35;;;;;;;25.38;14.90;;;1.00;99.90;;;;;;4250075;27;20063;-57
2024/01/19 08:29:37;;;;;;;27.95;15.15;;;1.00;99.90;;;;;;4249980;27;20071;-56
2024/01/19 08:31:43;;;;;;;29.85;16.40;;;1.20;99.90;;;;;;4249267;27;20043;-58
2024/01/19 08:33:45;;;;;;;24.60;14.63;;;1.30;99.90;;;;;;4249455;27;20047;-57
2024/01/19 08:35:47;;;;;;;26.05;16.02;;;1.30;99.90;;;;;;4248840;27;20062;-56
2024/01/19 08:37:49;;;;;;;23.50;15.23;;;1.30;99.90;;;;;;4230508;28;20044;-56
2024/01/19 08:39:51;;;;;;;27.10;16.55;;;1.40;99.90;;;;;;4248855;27;20096;-56
2024/01/19 08:41:55;;;;;;;31.08;17.08;;;1.20;99.80;;;;;;4248799;27;20075;-57
2024/01/19 08:43:57;;;;;;;32.13;16.50;;;1.00;99.80;;;;;;4248718;27;20102;-56
2024/01/19 08:46:00;;;;;;;32.33;17.77;;;1.10;99.90;;;;;;4248685;27;20742;-56
2024/01/19 08:48:03;;;;;;;27.55;15.88;;;0.90;99.70;;;;;;4248795;27;20445;-56
2024/01/19 08:50:06;;;;;;;26.35;14.23;;;0.90;99.90;;;;;;4248604;27;20082;-57
2024/01/19 08:52:08;;;;;;;26.05;16.13;;;1.00;99.90;;;;;;4248839;27;20170;-59
2024/01/19 08:54:11;;;;;;;27.98;16.77;;;1.00;99.90;;;;;;4248701;27;20039;-57
2024/01/19 08:56:19;;;;;;;26.30;17.20;;;1.00;99.90;;;;;;4249286;27;20066;-58
2024/01/19 08:58:25;;;;;;;27.73;16.42;;;1.00;99.90;;;;;;4248846;27;20494;-57
2024/01/19 09:00:27;;;;;;;25.10;12.95;;;1.10;99.90;;;;;;4248624;27;20065;-56
2024/01/19 09:02:29;;;;;;;36.47;19.35;;;1.20;99.90;;;;;;4248745;27;20042;-57
2024/01/19 09:04:33;;;;;;;30.48;17.13;;;1.20;99.90;;;;;;4248368;27;20048;-56
2024/01/19 09:06:35;;;;;;;28.83;16.80;;;1.30;99.90;;;;;;4230274;28;20048;-57
2024/01/19 09:08:42;;;;;;;30.27;18.00;;;1.30;99.90;;;;;;4248645;27;20075;-57
2024/01/19 09:10:44;;;;;;;30.48;17.48;;;1.20;99.70;;;;;;4248273;27;20165;-56
2024/01/19 09:12:46;;;;;;;29.85;18.30;;;1.30;99.80;;;;;;4248329;27;20459;-61
2024/01/19 09:14:51;;;;;;;39.88;18.63;;;1.30;99.90;;;;;;4230353;28;20047;-56
2024/01/19 09:16:53;;;;;;;30.85;17.45;;;1.30;99.90;;;;;;4249313;27;20055;-57
2024/01/19 09:18:55;;;;;;;28.38;17.85;;;1.40;99.90;;;;;;4230483;28;20071;-56
2024/01/19 09:20:58;;;;;;;30.92;16.00;;;1.60;99.90;;;;;;4230484;28;20048;-57
2024/01/19 09:23:01;;;;;;;32.78;18.90;;;1.60;99.90;;;;;;4230580;28;20053;-57
2024/01/19 09:25:04;;;;;;;27.60;16.70;;;1.80;99.90;;;;;;4250724;27;20104;-63
2024/01/19 09:27:06;;;;;;;25.20;15.27;;;2.40;99.90;;;;;;4252118;27;20528;-57
2024/01/19 09:29:10;;;;;;;29.05;14.45;;;2.40;99.40;;;;;;4251325;27;20442;-61
2024/01/19 09:31:14;;;;;;;18.52;11.95;;;2.60;99.50;;;;;;4251329;27;20440;-59
2024/01/19 09:33:16;;;;;;;28.90;15.25;;;2.70;99.00;;;;;;4251014;27;20047;-57
2024/01/19 09:35:18;;;;;;;22.95;15.88;;;2.90;98.90;;;;;;4251033;27;20051;-62
2024/01/19 09:37:20;;;;;;;22.67;14.48;;;2.90;98.50;;;;;;4251543;27;20047;-58
2024/01/19 09:39:23;;;;;;;26.63;14.38;;;2.90;98.90;;;;;;4249745;27;20480;-57
2024/01/19 09:41:31;;;;;;;21.70;13.48;;;3.10;98.70;;;;;;4248644;27;20047;-56
2024/01/19 09:43:34;;;;;;;25.10;15.05;;;3.10;98.50;;;;;;4247611;27;20051;-56
2024/01/19 09:45:41;;;;;;;25.23;14.93;;;3.10;98.30;;;;;;4248172;27;20044;-57
2024/01/19 09:47:58;;;;;;;23.38;13.13;;;3.10;98.20;;;;;;4247883;27;20046;-57
2024/01/19 09:50:05;;;;;;;18.17;12.35;;;3.10;98.50;;;;;;4247918;28;20043;-57
2024/01/19 09:52:21;;;;;;;25.30;13.80;;;3.20;98.30;;;;;;4248070;28;20047;-57
2024/01/19 09:54:31;;;;;;;24.35;13.90;;;3.50;98.50;;;;;;4248171;28;20054;-56
2024/01/19 09:56:33;;;;;;;20.70;13.50;;;3.50;98.00;;;;;;4248008;28;20043;-56
2024/01/19 09:58:36;;;;;;;26.05;13.57;;;3.40;98.00;;;;;;4248123;28;20441;-56
2024/01/19 10:00:39;;;;;;;25.55;13.68;;;3.60;98.50;;;;;;4247607;28;20046;-57
2024/01/19 10:02:48;;;;;;;23.90;14.13;;;3.70;98.00;;;;;;4247559;28;20482;-57
2024/01/19 10:04:53;;;;;;;24.02;14.32;;;3.60;97.10;;;;;;4247956;28;20055;-57
2024/01/19 10:06:55;;;;;;;20.08;14.05;;;3.50;97.40;;;;;;4247986;28;20502;-57
2024/01/19 10:08:58;;;;;;;23.92;15.32;;;3.30;97.70;;;;;;4250239;28;20118;-58
2024/01/19 10:11:05;;;;;;;24.60;13.85;;;3.20;97.60;;;;;;4250239;28;20127;-57
2024/01/19 10:13:07;;;;;;;21.98;14.80;;;3.20;98.40;;;;;;4250619;28;20047;-62
2024/01/19 10:15:13;;;;;;;24.70;15.32;;;3.20;98.10;;;;;;4231376;28;20048;-57
2024/01/19 10:17:17;;;;;;;23.13;16.33;;;3.20;97.90;;;;;;4248599;28;20050;-58
2024/01/19 10:19:21;;;;;;;26.92;15.55;;;3.10;97.40;;;;;;4248511;28;20049;-63
2024/01/19 10:21:27;;;;;;;28.45;16.40;;;3.10;98.10;;;;;;4248485;28;20047;-57
2024/01/19 10:23:29;;;;;;;24.05;15.57;;;3.10;98.10;;;;;;4248631;28;20051;-57
2024/01/19 10:25:33;;;;;;;26.58;16.40;;;3.20;98.00;;;;;;4247904;28;20086;-57
2024/01/19 10:27:46;;;;;;;25.88;16.42;;;3.20;98.00;;;;;;4248076;28;20498;-57
2024/01/19 10:29:49;;;;;;;30.27;16.05;;;3.30;98.30;;;;;;4247898;28;20062;-56
2024/01/19 10:31:55;;;;;;;29.60;17.20;;;3.30;97.90;;;;;;4248128;28;20075;-59